createdAt,value
2022-11-24T00:02:15.124Z,61.68
2022-11-24T00:04:41.825Z,61.82
2022-11-24T00:07:08.586Z,61.73
2022-11-24T00:09:35.108Z,61.44
2022-11-24T00:12:01.643Z,62.06
2022-11-24T00:14:28.420Z,61.73
2022-11-24T00:16:56.541Z,61.63
2022-11-24T00:19:23.391Z,61.67
2022-11-24T00:21:49.895Z,61.51
2022-11-24T00:24:16.629Z,61.61
2022-11-24T00:26:43.343Z,61.86
2022-11-24T00:29:11.221Z,61.71
2022-11-24T00:31:39.161Z,62.08
2022-11-24T00:34:09.798Z,61.81
2022-11-24T00:36:36.896Z,61.96
2022-11-24T00:39:05.270Z,61.72
2022-11-24T00:41:32.413Z,61.75
2022-11-24T00:43:59.357Z,61.87
2022-11-24T00:46:26.628Z,62.03
2022-11-24T00:48:54.175Z,61.93
2022-11-24T00:51:22.831Z,62.15
2022-11-24T00:53:49.481Z,62.27
2022-11-24T00:56:16.681Z,62.49
2022-11-24T00:58:43.475Z,62.29
2022-11-24T01:01:11.273Z,62.48
2022-11-24T01:03:37.915Z,62.26
2022-11-24T01:06:05.182Z,62.61
2022-11-24T01:08:33.599Z,62.33
2022-11-24T01:11:07.128Z,62.47
2022-11-24T01:13:33.718Z,62.75
2022-11-24T01:16:00.459Z,62.60
2022-11-24T01:18:27.045Z,62.49
2022-11-24T01:20:53.595Z,62.74
2022-11-24T01:23:20.155Z,62.78
2022-11-24T01:25:48.318Z,62.75
2022-11-24T01:28:15.536Z,62.82
2022-11-24T01:30:42.117Z,62.58
2022-11-24T01:33:08.802Z,62.85
2022-11-24T01:35:36.317Z,62.65
2022-11-24T01:38:02.881Z,62.54
2022-11-24T01:40:29.530Z,62.96
2022-11-24T01:42:57.683Z,62.88
2022-11-24T01:45:28.543Z,62.81
2022-11-24T01:47:55.550Z,62.79
2022-11-24T01:50:22.604Z,62.85
2022-11-24T01:52:52.457Z,62.74
2022-11-24T01:55:21.268Z,63.16
2022-11-24T01:57:50.216Z,62.84
2022-11-24T02:00:19.308Z,62.77
2022-11-24T02:02:45.971Z,62.96
2022-11-24T02:05:16.059Z,62.80
2022-11-24T02:07:43.102Z,62.71
2022-11-24T02:10:12.333Z,62.60
2022-11-24T02:12:39.787Z,62.78
2022-11-24T02:15:07.853Z,62.97
2022-11-24T02:17:35.985Z,62.81
2022-11-24T02:20:04.476Z,63.33
2022-11-24T02:22:35.463Z,62.89
2022-11-24T02:25:07.055Z,62.60
2022-11-24T02:27:35.651Z,63.02
2022-11-24T02:30:02.197Z,63.12
2022-11-24T02:32:31.012Z,63.12
2022-11-24T02:35:01.489Z,62.89
2022-11-24T02:37:28.187Z,62.91
2022-11-24T02:39:55.011Z,63.29
2022-11-24T02:42:22.014Z,63.16
2022-11-24T02:44:53.535Z,63.57
2022-11-24T02:47:20.234Z,63.42
2022-11-24T02:49:46.742Z,63.05
2022-11-24T02:52:14.125Z,63.50
2022-11-24T02:54:40.825Z,63.16
2022-11-24T02:57:07.598Z,63.51
2022-11-24T02:59:34.419Z,63.63
2022-11-24T03:02:02.955Z,63.31
2022-11-24T03:04:29.617Z,63.48
2022-11-24T03:06:58.269Z,63.54
2022-11-24T03:09:25.018Z,63.67
2022-11-24T03:11:51.581Z,63.88
2022-11-24T03:14:18.226Z,63.42
2022-11-24T03:16:45.013Z,63.36
2022-11-24T03:19:13.296Z,63.88
2022-11-24T03:21:39.988Z,63.55
2022-11-24T03:24:06.700Z,63.55
2022-11-24T03:26:35.706Z,63.94
2022-11-24T03:29:02.430Z,63.76
2022-11-24T03:31:29.010Z,63.99
2022-11-24T03:33:55.650Z,63.84
2022-11-24T03:36:23.705Z,64.03
2022-11-24T03:38:50.190Z,64.44
2022-11-24T03:41:17.149Z,64.44
2022-11-24T03:43:44.446Z,64.36
2022-11-24T03:46:11.227Z,64.32
2022-11-24T03:48:37.867Z,64.16
2022-11-24T03:51:04.634Z,64.13
2022-11-24T03:53:33.721Z,64.36
2022-11-24T03:56:00.431Z,64.18
2022-11-24T03:58:26.937Z,64.57
2022-11-24T04:00:54.085Z,64.48
2022-11-24T04:03:21.110Z,64.43
2022-11-24T04:05:47.924Z,64.49
2022-11-24T04:08:14.814Z,64.40
2022-11-24T04:10:43.063Z,64.85
2022-11-24T04:13:11.599Z,64.74
2022-11-24T04:15:39.030Z,65.40
2022-11-24T04:18:05.816Z,65.26
2022-11-24T04:20:32.642Z,65.61
2022-11-24T04:22:59.170Z,65.33
2022-11-24T04:25:25.856Z,65.56
2022-11-24T04:27:54.984Z,65.87
2022-11-24T04:30:22.679Z,65.62
2022-11-24T04:32:49.200Z,65.79
2022-11-24T04:35:15.706Z,65.91
2022-11-24T04:37:42.185Z,65.84
2022-11-24T04:40:10.042Z,65.80
2022-11-24T04:42:36.609Z,65.73
2022-11-24T04:45:05.207Z,65.74
2022-11-24T04:47:32.089Z,65.79
2022-11-24T04:49:58.636Z,65.61
2022-11-24T04:52:25.417Z,65.46
2022-11-24T04:54:52.259Z,65.80
2022-11-24T04:57:19.786Z,65.61
2022-11-24T04:59:46.497Z,65.35
2022-11-24T05:02:14.504Z,65.28
2022-11-24T05:04:41.203Z,65.41
2022-11-24T05:07:16.482Z,65.61
2022-11-24T05:10:03.323Z,65.57
2022-11-24T05:12:31.246Z,65.52
2022-11-24T05:14:58.217Z,65.14
2022-11-24T05:17:28.104Z,64.98
2022-11-24T05:19:54.750Z,64.71
2022-11-24T05:22:21.266Z,65.13
2022-11-24T05:24:47.723Z,65.00
2022-11-24T05:27:14.214Z,64.77
2022-11-24T05:29:40.681Z,64.36
2022-11-24T05:32:07.409Z,64.72
2022-11-24T05:34:35.474Z,64.96
2022-11-24T05:37:03.485Z,64.50
2022-11-24T05:39:31.202Z,64.66
2022-11-24T05:41:57.719Z,64.93
2022-11-24T05:44:24.196Z,64.42
2022-11-24T05:46:51.174Z,64.82
2022-11-24T05:49:17.829Z,64.29
2022-11-24T05:51:45.873Z,64.21
2022-11-24T05:54:12.349Z,64.44
2022-11-24T05:56:38.826Z,64.58
2022-11-24T05:59:09.623Z,64.60
2022-11-24T06:01:36.655Z,64.61
2022-11-24T06:04:03.439Z,64.14
2022-11-24T06:06:29.953Z,64.15
2022-11-24T06:08:58.594Z,64.01
2022-11-24T06:11:25.152Z,64.19
2022-11-24T06:13:51.761Z,63.92
2022-11-24T06:16:19.665Z,63.86
2022-11-24T06:18:46.419Z,64.20
2022-11-24T06:21:12.982Z,63.84
2022-11-24T06:23:39.656Z,64.01
2022-11-24T06:26:07.787Z,63.92
2022-11-24T06:28:34.303Z,63.75
2022-11-24T06:31:01.640Z,63.79
2022-11-24T06:33:30.318Z,64.06
2022-11-24T06:35:59.065Z,64.02
2022-11-24T06:38:25.584Z,63.61
2022-11-24T06:40:58.022Z,64.27
2022-11-24T06:43:26.159Z,64.43
2022-11-24T06:45:52.728Z,63.91
2022-11-24T06:48:19.270Z,64.37
2022-11-24T06:50:45.759Z,64.22
2022-11-24T06:53:12.601Z,64.20
2022-11-24T06:55:39.537Z,64.37
2022-11-24T06:58:06.300Z,64.32
2022-11-24T07:00:34.194Z,64.88
2022-11-24T07:03:01.058Z,65.19
2022-11-24T07:05:27.726Z,64.64
2022-11-24T07:07:54.302Z,65.00
2022-11-24T07:10:20.935Z,65.67
2022-11-24T07:12:47.430Z,65.26
2022-11-24T07:15:14.278Z,65.25
2022-11-24T07:17:42.220Z,65.44
2022-11-24T07:20:09.354Z,65.35
2022-11-24T07:22:35.837Z,65.19
2022-11-24T07:25:02.758Z,65.69
2022-11-24T07:27:30.196Z,65.74
2022-11-24T07:29:56.673Z,65.18
2022-11-24T07:32:23.206Z,65.75
2022-11-24T07:34:51.062Z,65.50
2022-11-24T07:37:17.563Z,64.91
2022-11-24T07:39:44.024Z,65.26
2022-11-24T07:42:11.393Z,65.34
2022-11-24T07:44:37.902Z,64.95
2022-11-24T07:47:04.394Z,65.09
2022-11-24T07:49:30.873Z,64.69
2022-11-24T07:51:58.782Z,64.73
2022-11-24T07:54:25.269Z,64.34
2022-11-24T07:56:51.729Z,64.84
2022-11-24T07:59:18.615Z,64.26
2022-11-24T08:01:45.271Z,64.19
2022-11-24T08:04:11.957Z,63.77
2022-11-24T08:06:44.654Z,63.50
2022-11-24T08:09:15.152Z,62.83
2022-11-24T08:11:41.657Z,62.77
2022-11-24T08:14:08.196Z,62.63
2022-11-24T08:16:34.709Z,62.24
2022-11-24T08:19:01.296Z,62.61
2022-11-24T08:21:27.844Z,62.58
2022-11-24T08:23:55.025Z,61.88
2022-11-24T08:26:24.718Z,61.05
2022-11-24T08:28:53.453Z,60.17
2022-11-24T08:31:20.011Z,59.91
2022-11-24T08:33:47.007Z,59.15
2022-11-24T08:36:14.402Z,57.52
2022-11-24T08:38:41.195Z,57.36
2022-11-24T08:41:11.523Z,56.88
2022-11-24T08:43:39.573Z,56.60
2022-11-24T08:46:08.380Z,55.85
2022-11-24T08:48:35.399Z,55.24
2022-11-24T08:51:07.027Z,55.91
2022-11-24T08:53:33.672Z,55.78
2022-11-24T08:56:00.569Z,56.42
2022-11-24T08:58:27.782Z,55.66
2022-11-24T09:00:55.774Z,54.96
2022-11-24T09:03:22.264Z,56.39
2022-11-24T09:05:52.892Z,56.05
2022-11-24T09:08:20.667Z,55.05
2022-11-24T09:10:47.213Z,54.76
2022-11-24T09:13:13.840Z,55.15
2022-11-24T09:15:40.504Z,54.95
2022-11-24T09:18:08.602Z,55.43
2022-11-24T09:20:35.103Z,55.48
2022-11-24T09:23:01.632Z,55.65
2022-11-24T09:25:28.098Z,55.65
2022-11-24T09:27:54.937Z,55.58
2022-11-24T09:30:21.544Z,56.23
2022-11-24T09:32:48.110Z,56.33
2022-11-24T09:35:16.452Z,55.85
2022-11-24T09:37:44.748Z,56.14
2022-11-24T09:40:13.121Z,56.15
2022-11-24T09:42:43.298Z,56.36
2022-11-24T09:45:35.384Z,56.03
2022-11-24T09:48:10.935Z,56.08
2022-11-24T09:50:39.089Z,56.49
2022-11-24T09:53:08.851Z,56.35
2022-11-24T09:55:38.430Z,56.60
2022-11-24T09:58:22.913Z,56.24
2022-11-24T10:00:51.796Z,57.16
2022-11-24T10:03:20.802Z,57.20
2022-11-24T10:05:50.649Z,57.60
2022-11-24T10:08:23.942Z,58.15
2022-11-24T10:10:54.846Z,57.78
2022-11-24T10:13:28.244Z,58.52
2022-11-24T10:15:58.753Z,59.05
2022-11-24T10:18:49.296Z,58.91
2022-11-24T10:21:30.890Z,59.06
2022-11-24T10:24:08.829Z,59.17
2022-11-24T10:26:36.384Z,59.19
2022-11-24T10:29:08.835Z,59.91
2022-11-24T10:31:36.026Z,59.66
2022-11-24T10:34:04.331Z,59.59
2022-11-24T10:36:40.069Z,59.37
2022-11-24T10:39:13.496Z,60.12
2022-11-24T10:41:46.006Z,59.71
2022-11-24T10:44:13.940Z,60.07
2022-11-24T10:46:40.839Z,59.81
2022-11-24T10:49:07.338Z,59.46
2022-11-24T10:51:41.372Z,59.77
2022-11-24T10:54:12.728Z,59.83
2022-11-24T10:56:40.144Z,60.23
2022-11-24T10:59:29.083Z,60.05
2022-11-24T11:01:55.875Z,60.41
2022-11-24T11:04:25.621Z,59.86
2022-11-24T11:07:06.522Z,59.69
2022-11-24T11:09:33.232Z,59.62
2022-11-24T11:12:28.029Z,60.06
2022-11-24T11:14:55.246Z,59.62
2022-11-24T11:17:33.451Z,59.52
2022-11-24T11:20:02.725Z,59.92
2022-11-24T11:22:32.275Z,59.45
2022-11-24T11:25:04.329Z,58.05
2022-11-24T11:27:30.856Z,58.85
2022-11-24T11:35:50.102Z,59.05
2022-11-24T11:38:19.163Z,59.09
2022-11-24T11:43:38.173Z,59.65
2022-11-24T11:46:06.079Z,59.64
2022-11-24T11:48:42.765Z,59.15
2022-11-24T11:51:23.689Z,58.11
2022-11-24T11:53:57.233Z,58.18
2022-11-24T11:56:25.222Z,58.27
2022-11-24T11:59:00.488Z,58.33
2022-11-24T12:01:40.343Z,57.96
2022-11-24T12:04:16.148Z,58.84
2022-11-24T12:06:56.674Z,58.57
2022-11-24T12:09:30.358Z,59.02
2022-11-24T12:12:08.680Z,59.60
2022-11-24T12:14:41.537Z,59.65
2022-11-24T12:17:12.020Z,59.85
2022-11-24T12:19:44.751Z,59.10
2022-11-24T12:22:17.406Z,59.62
2022-11-24T12:24:50.708Z,59.63
2022-11-24T12:27:23.285Z,59.10
2022-11-24T12:29:55.889Z,58.90
2022-11-24T12:32:32.750Z,59.35
2022-11-24T12:35:04.178Z,58.92
2022-11-24T12:37:40.386Z,58.68
2022-11-24T12:40:13.526Z,58.86
2022-11-24T12:42:45.715Z,58.44
2022-11-24T12:45:15.498Z,59.18
2022-11-24T12:47:47.215Z,58.70
2022-11-24T12:50:17.710Z,57.65
2022-11-24T12:52:55.611Z,58.64
2022-11-24T12:55:28.620Z,58.36
2022-11-24T12:57:59.526Z,58.80
2022-11-24T13:00:30.303Z,57.74
2022-11-24T13:03:05.055Z,57.56
2022-11-24T13:08:18.002Z,57.17
2022-11-24T13:21:58.893Z,58.17
2022-11-24T13:24:26.296Z,57.93
2022-11-24T13:27:16.041Z,57.49
2022-11-24T13:44:28.032Z,57.55
2022-11-24T13:49:58.100Z,58.31
2022-11-24T13:55:46.504Z,57.78
2022-11-24T14:01:18.087Z,58.80
2022-11-24T14:14:49.155Z,58.96
2022-11-24T14:26:29.391Z,58.90
2022-11-24T14:29:06.133Z,59.30
2022-11-24T14:31:33.678Z,59.62
2022-11-24T14:34:16.557Z,59.63
2022-11-24T14:36:44.285Z,59.63
2022-11-24T14:39:25.557Z,58.97
2022-11-24T14:41:55.258Z,58.17
2022-11-24T14:44:31.997Z,59.12
2022-11-24T14:49:47.037Z,59.52
2022-11-24T14:52:16.313Z,59.48
2022-11-24T14:55:07.515Z,59.03
2022-11-24T15:08:47.518Z,59.64
2022-11-24T15:11:14.620Z,59.89
2022-11-24T15:25:32.750Z,60.01
2022-11-24T15:33:31.893Z,60.32
2022-11-24T23:47:00.503Z,67.01
2022-11-24T23:55:15.288Z,67.79
